Hope Mills, North Carolina
Current Conditions -  °F | °C
As of 4:27 AM on Monday 24 Nov 2014 (Local Time) from KFAY Reporting Station
Few Clouds Few Clouds  
Wind Chill: 62°   Ceiling: Unl
Heat Index: 62°   Visibility: 7mi
Dew Point: 61°   Wind: 5mph
Humidity: 96%   Direction: 170°S
Pressure: 29.8"   Gusts: NA
Location:  34.97°N, 78.95°W
Report Text: KFAY 240927Z AUTO 17004KT 7SM FEW019 FEW029 17/16 A2980 RMK AO2 T01670161
Loading
Personal Weather Stations






























Interactive Weather Map New forecast layout! Learn more

10-Day Weather Forecast

Advertisements
Track Severe Weather on mobile